Time;durP1;ratioP1;P1;durP2;ratioP2;P2;SDS_P1;SDS_P2;PMS_P1;PMS_P2;Temp;Humidity;BMP_temperature;BMP_pressure;BME280_temperature;BME280_humidity;BME280_pressure;Samples;Min_cycle;Max_cycle;Signal;HPM_P1;HPM_P2
2021/08/18 00:00:41;;;;;;;1.30;1.20;;;;;;;;;;4910421;29;20195;-85
2021/08/18 00:03:17;;;;;;;1.33;1.27;;;;;;;;;;4900516;29;20210;-86
2021/08/18 00:05:47;;;;;;;1.25;1.23;;;;;;;;;;4925955;29;20225;-85
2021/08/18 00:08:17;;;;;;;1.20;1.17;;;;;;;;;;4938377;29;20190;-86
2021/08/18 00:10:44;;;;;;;1.95;1.85;;;;;;;;;;4938301;29;20198;-86
2021/08/18 00:13:13;;;;;;;3.53;1.30;;;;;;;;;;4938552;29;20265;-85
2021/08/18 00:15:42;;;;;;;1.02;1.02;;;;;;;;;;4921517;29;20702;-86
2021/08/18 00:18:10;;;;;;;1.10;0.90;;;;;;;;;;4900554;29;20199;-86
2021/08/18 00:20:40;;;;;;;1.75;1.63;;;;;;;;;;4912895;29;20202;-86
2021/08/18 00:23:10;;;;;;;1.08;0.98;;;;;;;;;;4919043;29;20187;-86
2021/08/18 00:25:42;;;;;;;1.35;1.25;;;;;;;;;;4908815;29;20608;-86
2021/08/18 00:28:10;;;;;;;1.10;1.10;;;;;;;;;;4918255;29;20210;-86
2021/08/18 00:30:39;;;;;;;0.95;0.95;;;;;;;;;;4918475;29;20215;-85
2021/08/18 00:33:08;;;;;;;1.23;1.23;;;;;;;;;;4919241;29;20226;-86
2021/08/18 00:35:35;;;;;;;1.27;1.17;;;;;;;;;;4927640;29;20230;-86
2021/08/18 00:38:05;;;;;;;1.30;1.20;;;;;;;;;;4938185;29;20212;-85
2021/08/18 00:40:33;;;;;;;1.15;1.15;;;;;;;;;;4937733;29;20182;-86
2021/08/18 00:43:00;;;;;;;1.80;1.70;;;;;;;;;;4937359;29;20208;-86
2021/08/18 00:45:29;;;;;;;1.65;1.20;;;;;;;;;;4926803;29;20589;-85
2021/08/18 00:47:58;;;;;;;0.80;0.80;;;;;;;;;;4918699;29;20190;-85
2021/08/18 00:50:28;;;;;;;0.82;0.82;;;;;;;;;;4918846;29;20297;-86
2021/08/18 00:52:55;;;;;;;1.00;1.00;;;;;;;;;;4918671;29;20214;-86
2021/08/18 00:55:27;;;;;;;0.90;0.90;;;;;;;;;;4926570;29;20222;-86
2021/08/18 00:57:58;;;;;;;1.05;1.05;;;;;;;;;;4918834;29;20221;-86
2021/08/18 01:00:28;;;;;;;1.08;1.00;;;;;;;;;;4918469;29;20210;-86
2021/08/18 01:02:57;;;;;;;1.20;1.10;;;;;;;;;;4907979;29;20588;-85
2021/08/18 01:05:28;;;;;;;0.75;0.75;;;;;;;;;;4899787;29;20249;-86
2021/08/18 01:08:01;;;;;;;0.70;0.70;;;;;;;;;;4899494;29;20186;-86
2021/08/18 01:10:35;;;;;;;1.40;1.30;;;;;;;;;;4899658;29;20228;-85
2021/08/18 01:13:05;;;;;;;1.05;1.05;;;;;;;;;;4899348;29;20594;-85
2021/08/18 01:15:35;;;;;;;0.70;0.70;;;;;;;;;;4922255;29;20221;-86
2021/08/18 01:18:10;;;;;;;0.80;0.80;;;;;;;;;;4937438;29;20193;-86
2021/08/18 01:20:42;;;;;;;0.63;0.63;;;;;;;;;;4937471;29;20205;-86
2021/08/18 01:23:16;;;;;;;0.70;0.70;;;;;;;;;;4937718;29;20566;-86
2021/08/18 01:25:46;;;;;;;0.80;0.80;;;;;;;;;;4924345;29;20237;-85
2021/08/18 01:28:16;;;;;;;0.80;0.80;;;;;;;;;;4902359;29;20202;-86
2021/08/18 01:30:46;;;;;;;0.75;0.75;;;;;;;;;;4899323;29;20214;-85
2021/08/18 01:33:17;;;;;;;0.82;0.82;;;;;;;;;;4899109;29;20210;-86
2021/08/18 01:35:46;;;;;;;0.50;0.50;;;;;;;;;;4924508;29;20712;-86
2021/08/18 01:38:19;;;;;;;0.60;0.60;;;;;;;;;;4936138;29;20281;-85
2021/08/18 01:40:52;;;;;;;0.57;0.57;;;;;;;;;;4936892;29;20194;-85
2021/08/18 01:43:19;;;;;;;0.50;0.50;;;;;;;;;;4936774;29;20198;-86
2021/08/18 01:45:49;;;;;;;0.60;0.60;;;;;;;;;;4923418;29;20735;-85
2021/08/18 01:48:21;;;;;;;0.80;0.77;;;;;;;;;;4918285;29;20209;-86
2021/08/18 01:50:53;;;;;;;1.08;1.00;;;;;;;;;;4918325;29;20198;-85
2021/08/18 01:53:23;;;;;;;0.60;0.60;;;;;;;;;;4918536;29;20206;-85
2021/08/18 01:55:51;;;;;;;0.65;0.63;;;;;;;;;;4907066;29;20230;-85
2021/08/18 01:58:18;;;;;;;0.50;0.50;;;;;;;;;;4899297;29;20214;-85
2021/08/18 02:00:48;;;;;;;0.70;0.70;;;;;;;;;;4899666;29;20577;-86
2021/08/18 02:03:16;;;;;;;0.60;0.60;;;;;;;;;;4915452;29;20794;-85
2021/08/18 02:05:43;;;;;;;0.73;0.73;;;;;;;;;;4930333;29;20218;-86
2021/08/18 02:08:11;;;;;;;0.60;0.60;;;;;;;;;;4931498;29;20193;-86
2021/08/18 02:10:40;;;;;;;0.70;0.70;;;;;;;;;;4917950;29;20206;-86
2021/08/18 02:13:10;;;;;;;0.80;0.80;;;;;;;;;;4918811;29;20195;-84
2021/08/18 02:15:38;;;;;;;0.55;0.55;;;;;;;;;;4931425;29;20229;-86
2021/08/18 02:18:08;;;;;;;0.80;0.80;;;;;;;;;;4936229;29;20194;-86
2021/08/18 02:20:38;;;;;;;0.80;0.80;;;;;;;;;;4936371;29;20217;-86
2021/08/18 02:23:07;;;;;;;0.80;0.80;;;;;;;;;;4936026;29;20202;-85
2021/08/18 02:25:37;;;;;;;0.80;0.80;;;;;;;;;;4924006;29;20219;-86
2021/08/18 02:28:11;;;;;;;0.73;0.73;;;;;;;;;;4916859;29;20638;-86
2021/08/18 02:30:42;;;;;;;0.80;0.80;;;;;;;;;;4916747;29;20196;-86
2021/08/18 02:33:12;;;;;;;0.95;0.95;;;;;;;;;;4917195;29;20190;-86
2021/08/18 02:35:40;;;;;;;0.90;0.90;;;;;;;;;;4919410;29;20725;-86
2021/08/18 02:38:08;;;;;;;0.77;0.77;;;;;;;;;;4916814;29;20206;-86
2021/08/18 02:40:36;;;;;;;0.60;0.60;;;;;;;;;;4916508;29;20197;-85
2021/08/18 02:43:05;;;;;;;0.90;0.90;;;;;;;;;;4916550;29;20218;-86
2021/08/18 02:45:40;;;;;;;0.80;0.80;;;;;;;;;;4914937;29;20227;-86
2021/08/18 02:48:09;;;;;;;0.68;0.68;;;;;;;;;;4897334;29;20195;-86
2021/08/18 02:50:38;;;;;;;0.60;0.60;;;;;;;;;;4897728;29;20218;-86
2021/08/18 02:53:06;;;;;;;0.60;0.60;;;;;;;;;;4897721;29;20665;-86
2021/08/18 02:55:34;;;;;;;0.68;0.68;;;;;;;;;;4915900;29;20233;-85
2021/08/18 02:58:03;;;;;;;0.70;0.70;;;;;;;;;;4916951;29;20198;-85
2021/08/18 03:00:31;;;;;;;0.70;0.70;;;;;;;;;;4915726;29;20203;-85
2021/08/18 03:03:00;;;;;;;0.47;0.47;;;;;;;;;;4915094;29;20207;-85
2021/08/18 03:05:28;;;;;;;0.80;0.80;;;;;;;;;;4916335;29;20233;-86
2021/08/18 03:07:58;;;;;;;0.50;0.50;;;;;;;;;;4915842;29;20672;-85
2021/08/18 03:10:26;;;;;;;0.55;0.55;;;;;;;;;;4915826;29;20201;-86
2021/08/18 03:12:53;;;;;;;0.70;0.70;;;;;;;;;;4916007;29;20277;-86
2021/08/18 03:15:23;;;;;;;0.40;0.40;;;;;;;;;;4915525;29;20233;-86
2021/08/18 03:17:52;;;;;;;0.50;0.50;;;;;;;;;;4915597;29;20195;-86
2021/08/18 03:20:26;;;;;;;0.50;0.50;;;;;;;;;;4915687;29;20202;-87
2021/08/18 03:22:54;;;;;;;0.88;0.82;;;;;;;;;;4915348;29;20194;-86
2021/08/18 03:25:24;;;;;;;0.57;0.57;;;;;;;;;;4915640;29;20705;-86
2021/08/18 03:27:53;;;;;;;0.45;0.45;;;;;;;;;;4916255;29;20215;-86
2021/08/18 03:30:22;;;;;;;0.50;0.50;;;;;;;;;;4916263;29;20571;-86
2021/08/18 03:32:49;;;;;;;0.70;0.70;;;;;;;;;;4916451;29;20191;-83
2021/08/18 03:35:17;;;;;;;0.55;0.55;;;;;;;;;;4916850;29;20226;-84
2021/08/18 03:37:44;;;;;;;0.45;0.45;;;;;;;;;;4934898;29;20209;-84
2021/08/18 03:40:13;;;;;;;0.70;0.57;;;;;;;;;;4935309;29;20213;-84
2021/08/18 03:42:43;;;;;;;0.70;0.70;;;;;;;;;;4935594;29;20182;-85
2021/08/18 03:45:12;;;;;;;0.50;0.50;;;;;;;;;;4926454;29;20218;-84
2021/08/18 03:47:40;;;;;;;0.50;0.50;;;;;;;;;;4916183;29;20191;-84
2021/08/18 03:50:09;;;;;;;0.47;0.47;;;;;;;;;;4916107;29;20194;-84
2021/08/18 03:52:40;;;;;;;0.55;0.55;;;;;;;;;;4915488;29;20213;-84
2021/08/18 03:55:09;;;;;;;0.45;0.45;;;;;;;;;;4907774;29;20624;-84
2021/08/18 03:57:36;;;;;;;0.38;0.38;;;;;;;;;;4897019;29;20194;-84
2021/08/18 04:00:08;;;;;;;0.60;0.60;;;;;;;;;;4897074;29;20273;-85
2021/08/18 04:02:35;;;;;;;0.50;0.50;;;;;;;;;;4898168;29;20199;-84
2021/08/18 04:05:04;;;;;;;0.30;0.30;;;;;;;;;;4915048;29;20220;-85
2021/08/18 04:07:32;;;;;;;0.47;0.47;;;;;;;;;;4938112;29;20588;-85
2021/08/18 04:09:59;;;;;;;0.50;0.50;;;;;;;;;;4938171;29;20186;-84
2021/08/18 04:12:27;;;;;;;0.50;0.50;;;;;;;;;;4938262;29;20191;-85
2021/08/18 04:14:54;;;;;;;0.60;0.60;;;;;;;;;;4931781;29;20222;-85
2021/08/18 04:17:23;;;;;;;0.45;0.45;;;;;;;;;;4919406;29;20201;-84
2021/08/18 04:19:51;;;;;;;0.35;0.30;;;;;;;;;;4919248;29;20669;-84
2021/08/18 04:22:19;;;;;;;0.60;0.60;;;;;;;;;;4919045;29;20575;-85
2021/08/18 04:24:46;;;;;;;0.40;0.40;;;;;;;;;;4924827;29;20218;-85
2021/08/18 04:27:13;;;;;;;0.40;0.40;;;;;;;;;;4938062;29;20210;-85
2021/08/18 04:29:41;;;;;;;0.30;0.30;;;;;;;;;;4937844;29;20210;-83
2021/08/18 04:32:09;;;;;;;0.30;0.30;;;;;;;;;;4937661;29;20767;-84
2021/08/18 04:34:37;;;;;;;0.40;0.40;;;;;;;;;;4933996;29;20222;-84
2021/08/18 04:37:05;;;;;;;0.20;0.20;;;;;;;;;;4918188;29;20253;-84
2021/08/18 04:39:33;;;;;;;0.50;0.50;;;;;;;;;;4918762;29;20272;-84
2021/08/18 04:42:01;;;;;;;0.50;0.50;;;;;;;;;;4919204;29;20273;-84
2021/08/18 04:44:29;;;;;;;0.20;0.20;;;;;;;;;;4920665;29;20222;-84
2021/08/18 04:46:57;;;;;;;0.50;0.50;;;;;;;;;;4904845;29;20199;-84
2021/08/18 04:49:24;;;;;;;0.40;0.40;;;;;;;;;;4900029;29;20187;-83
2021/08/18 04:51:54;;;;;;;0.50;0.50;;;;;;;;;;4899725;29;20191;-85
2021/08/18 04:54:21;;;;;;;0.50;0.50;;;;;;;;;;4901909;29;20234;-84
2021/08/18 04:56:49;;;;;;;0.60;0.60;;;;;;;;;;4918572;29;20210;-84
2021/08/18 04:59:16;;;;;;;0.40;0.40;;;;;;;;;;4919118;29;20203;-84
2021/08/18 05:01:44;;;;;;;0.57;0.57;;;;;;;;;;4918628;29;20225;-84
2021/08/18 05:04:11;;;;;;;0.45;0.45;;;;;;;;;;4918273;29;20207;-83
2021/08/18 05:06:39;;;;;;;0.40;0.40;;;;;;;;;;4919417;29;20210;-84
2021/08/18 05:09:07;;;;;;;0.47;0.47;;;;;;;;;;4918381;29;20197;-85
2021/08/18 05:11:36;;;;;;;0.40;0.40;;;;;;;;;;4918736;29;20210;-85
2021/08/18 05:14:03;;;;;;;0.55;0.55;;;;;;;;;;4918056;29;20194;-85
2021/08/18 05:16:31;;;;;;;0.63;0.63;;;;;;;;;;4899590;29;20222;-85
2021/08/18 05:18:58;;;;;;;0.35;0.35;;;;;;;;;;4899406;29;20195;-85
2021/08/18 05:21:26;;;;;;;1.10;1.10;;;;;;;;;;4899384;29;20270;-84
2021/08/18 05:23:53;;;;;;;0.70;0.70;;;;;;;;;;4899237;29;20218;-85
2021/08/18 05:26:23;;;;;;;0.65;0.65;;;;;;;;;;4917032;29;20227;-85
2021/08/18 05:28:52;;;;;;;0.60;0.60;;;;;;;;;;4919195;29;20577;-85
2021/08/18 05:31:20;;;;;;;0.65;0.65;;;;;;;;;;4918900;29;20214;-85
2021/08/18 05:33:47;;;;;;;0.90;0.90;;;;;;;;;;4917683;29;20213;-84
2021/08/18 05:36:15;;;;;;;1.10;0.95;;;;;;;;;;4916876;29;20246;-84
2021/08/18 05:38:42;;;;;;;0.80;0.80;;;;;;;;;;4917702;29;20213;-84
2021/08/18 05:41:11;;;;;;;0.90;0.90;;;;;;;;;;4917690;29;20676;-85
2021/08/18 05:43:41;;;;;;;0.90;0.90;;;;;;;;;;4916258;29;20216;-85
2021/08/18 05:46:09;;;;;;;0.82;0.82;;;;;;;;;;4917023;29;20591;-84
2021/08/18 05:48:36;;;;;;;1.27;1.20;;;;;;;;;;4917493;29;20187;-84
2021/08/18 05:51:07;;;;;;;1.38;1.30;;;;;;;;;;4917665;29;20201;-84
2021/08/18 05:53:35;;;;;;;1.23;1.20;;;;;;;;;;4917449;29;20209;-85
2021/08/18 05:56:03;;;;;;;1.25;1.20;;;;;;;;;;4901955;29;20231;-85
2021/08/18 05:58:31;;;;;;;1.23;1.20;;;;;;;;;;4898668;29;20227;-84
2021/08/18 06:01:01;;;;;;;1.00;1.00;;;;;;;;;;4898258;29;20215;-84
2021/08/18 06:03:29;;;;;;;0.95;0.95;;;;;;;;;;4898192;29;20211;-84
2021/08/18 06:05:56;;;;;;;1.60;1.50;;;;;;;;;;4912242;29;20223;-84
2021/08/18 06:08:24;;;;;;;1.33;1.23;;;;;;;;;;4897832;29;20199;-84
2021/08/18 06:10:52;;;;;;;1.05;1.05;;;;;;;;;;4898193;29;20274;-83
2021/08/18 06:13:21;;;;;;;1.20;1.10;;;;;;;;;;4898141;29;20192;-84
2021/08/18 06:15:51;;;;;;;1.40;1.30;;;;;;;;;;4896939;29;20223;-84
2021/08/18 06:18:20;;;;;;;1.00;1.00;;;;;;;;;;4906130;29;20228;-84
2021/08/18 06:20:49;;;;;;;0.90;0.90;;;;;;;;;;4917153;29;20209;-83
2021/08/18 06:23:21;;;;;;;1.02;1.00;;;;;;;;;;4917173;29;20209;-83
2021/08/18 06:25:48;;;;;;;1.33;1.20;;;;;;;;;;4916946;29;20249;-84
2021/08/18 06:28:17;;;;;;;1.08;1.08;;;;;;;;;;4917605;29;20183;-82
2021/08/18 06:30:48;;;;;;;1.02;1.02;;;;;;;;;;4917111;29;20246;-83
2021/08/18 06:33:15;;;;;;;1.23;1.23;;;;;;;;;;4917115;29;20193;-83
2021/08/18 06:35:44;;;;;;;1.50;1.17;;;;;;;;;;4916400;29;20233;-84
2021/08/18 06:38:12;;;;;;;0.80;0.80;;;;;;;;;;4916715;29;20219;-85
2021/08/18 06:40:43;;;;;;;1.00;1.00;;;;;;;;;;4916931;29;20186;-89
2021/08/18 06:43:21;;;;;;;0.80;0.80;;;;;;;;;;4916501;29;20189;-85
2021/08/18 06:45:50;;;;;;;0.90;0.90;;;;;;;;;;4916424;29;20659;-86
2021/08/18 06:48:27;;;;;;;0.90;0.90;;;;;;;;;;4917077;29;20206;-85
2021/08/18 06:51:05;;;;;;;0.80;0.80;;;;;;;;;;4917527;29;20214;-85
2021/08/18 06:53:35;;;;;;;1.00;1.00;;;;;;;;;;4916985;29;20194;-85
2021/08/18 06:56:02;;;;;;;0.90;0.90;;;;;;;;;;4917397;29;20233;-84
2021/08/18 06:58:31;;;;;;;0.95;0.95;;;;;;;;;;4915561;29;20226;-86
2021/08/18 07:00:59;;;;;;;1.30;1.20;;;;;;;;;;4916435;29;20206;-85
2021/08/18 07:03:26;;;;;;;1.38;1.30;;;;;;;;;;4916698;29;20197;-86
2021/08/18 07:05:54;;;;;;;0.93;0.90;;;;;;;;;;4916026;29;20230;-85
2021/08/18 07:08:24;;;;;;;1.42;1.35;;;;;;;;;;4912107;29;20572;-85
2021/08/18 07:10:53;;;;;;;1.50;1.40;;;;;;;;;;4916043;29;20210;-85
2021/08/18 07:13:22;;;;;;;2.13;1.90;;;;;;;;;;4916441;29;20213;-86
2021/08/18 07:15:56;;;;;;;2.30;1.92;;;;;;;;;;4916132;29;20312;-87
2021/08/18 07:18:25;;;;;;;2.35;1.50;;;;;;;;;;4915990;29;20595;-86
2021/08/18 07:20:52;;;;;;;1.63;1.52;;;;;;;;;;4915279;29;20204;-85
2021/08/18 07:23:20;;;;;;;1.75;1.50;;;;;;;;;;4916236;29;20198;-86
2021/08/18 07:25:50;;;;;;;1.33;1.23;;;;;;;;;;4916075;29;20230;-86
2021/08/18 07:28:17;;;;;;;1.23;1.20;;;;;;;;;;4916218;29;20183;-86
2021/08/18 07:30:46;;;;;;;1.08;1.02;;;;;;;;;;4915992;29;20588;-85
2021/08/18 07:33:13;;;;;;;1.10;1.10;;;;;;;;;;4914528;29;20195;-85
2021/08/18 07:35:40;;;;;;;1.80;1.40;;;;;;;;;;4915757;29;20582;-85
2021/08/18 07:38:09;;;;;;;1.90;1.80;;;;;;;;;;4918783;29;20600;-85
2021/08/18 07:40:40;;;;;;;1.33;1.27;;;;;;;;;;4920263;29;20195;-86
2021/08/18 07:43:09;;;;;;;1.33;1.33;;;;;;;;;;4919115;29;20187;-86
2021/08/18 07:45:38;;;;;;;1.63;1.52;;;;;;;;;;4918096;29;20222;-86
2021/08/18 07:48:06;;;;;;;1.85;1.73;;;;;;;;;;4918157;29;20206;-86
2021/08/18 07:50:36;;;;;;;1.90;1.75;;;;;;;;;;4919455;29;20186;-86
2021/08/18 07:53:06;;;;;;;2.00;1.90;;;;;;;;;;4919259;29;20194;-86
2021/08/18 07:55:36;;;;;;;2.00;1.90;;;;;;;;;;4919404;29;20321;-86
2021/08/18 07:58:04;;;;;;;1.88;1.77;;;;;;;;;;4919564;29;20586;-86
2021/08/18 08:00:38;;;;;;;1.70;1.60;;;;;;;;;;4919257;29;20203;-86
2021/08/18 08:03:07;;;;;;;1.70;1.60;;;;;;;;;;4919497;29;20195;-86
2021/08/18 08:05:35;;;;;;;2.08;1.70;;;;;;;;;;4918086;29;20266;-85
2021/08/18 08:08:04;;;;;;;3.15;2.00;;;;;;;;;;4918595;29;20287;-86
2021/08/18 08:10:33;;;;;;;2.33;2.17;;;;;;;;;;4919214;29;20564;-85
2021/08/18 08:13:03;;;;;;;2.30;2.10;;;;;;;;;;4919177;29;20210;-84
2021/08/18 08:15:30;;;;;;;2.50;2.30;;;;;;;;;;4919134;29;20309;-85
2021/08/18 08:17:59;;;;;;;3.30;2.45;;;;;;;;;;4919715;29;20211;-85
2021/08/18 08:20:28;;;;;;;1.77;1.67;;;;;;;;;;4919085;29;20179;-85
2021/08/18 08:22:55;;;;;;;1.90;1.80;;;;;;;;;;4919280;29;20199;-85
2021/08/18 08:25:25;;;;;;;1.90;1.80;;;;;;;;;;4918672;29;20706;-85
2021/08/18 08:27:53;;;;;;;2.15;1.95;;;;;;;;;;4918824;29;20191;-88
2021/08/18 08:30:24;;;;;;;2.10;2.00;;;;;;;;;;4918957;29;20630;-86
2021/08/18 08:32:51;;;;;;;1.98;1.88;;;;;;;;;;4918360;29;20210;-87
2021/08/18 08:35:23;;;;;;;1.98;1.85;;;;;;;;;;4918850;29;20228;-83
2021/08/18 08:37:51;;;;;;;2.13;2.03;;;;;;;;;;4920725;29;20583;-84
2021/08/18 08:40:20;;;;;;;1.88;1.77;;;;;;;;;;4921405;29;20203;-85
2021/08/18 08:42:48;;;;;;;1.73;1.63;;;;;;;;;;4921008;29;20210;-83
2021/08/18 08:45:16;;;;;;;2.20;2.00;;;;;;;;;;4918773;29;20228;-86
2021/08/18 08:47:44;;;;;;;1.85;1.75;;;;;;;;;;4917970;29;20630;-85
2021/08/18 08:50:14;;;;;;;2.03;1.92;;;;;;;;;;4919054;29;20199;-85
2021/08/18 08:52:43;;;;;;;1.88;1.77;;;;;;;;;;4919213;29;20202;-86
2021/08/18 08:55:12;;;;;;;2.03;1.65;;;;;;;;;;4919152;29;20230;-86
2021/08/18 08:57:48;;;;;;;1.80;1.70;;;;;;;;;;4919358;29;20201;-87
2021/08/18 09:00:16;;;;;;;1.50;1.40;;;;;;;;;;4919113;29;20197;-86
2021/08/18 09:02:44;;;;;;;1.85;1.75;;;;;;;;;;4918953;29;20226;-88
2021/08/18 09:05:11;;;;;;;1.65;1.55;;;;;;;;;;4918106;29;20224;-87
2021/08/18 09:07:39;;;;;;;1.70;1.60;;;;;;;;;;4918070;29;20193;-86
2021/08/18 09:10:09;;;;;;;1.60;1.40;;;;;;;;;;4918959;29;20198;-87
2021/08/18 09:12:39;;;;;;;1.50;1.40;;;;;;;;;;4919345;29;20626;-87
2021/08/18 09:15:18;;;;;;;1.83;1.73;;;;;;;;;;4918831;29;20230;-87
2021/08/18 09:17:53;;;;;;;1.67;1.58;;;;;;;;;;4918500;29;20194;-86
2021/08/18 09:20:23;;;;;;;1.00;1.00;;;;;;;;;;4917005;29;20206;-87
2021/08/18 09:22:55;;;;;;;1.10;1.00;;;;;;;;;;4916884;29;20670;-87
2021/08/18 09:25:27;;;;;;;1.23;1.17;;;;;;;;;;4916880;29;20226;-86
2021/08/18 09:28:14;;;;;;;1.40;1.30;;;;;;;;;;4917469;29;20195;-87
2021/08/18 09:30:45;;;;;;;1.42;1.33;;;;;;;;;;4917344;29;20205;-86
2021/08/18 09:33:14;;;;;;;1.10;1.10;;;;;;;;;;4917733;29;20184;-86
2021/08/18 09:35:43;;;;;;;2.20;1.40;;;;;;;;;;4917242;29;20238;-85
2021/08/18 09:38:16;;;;;;;1.67;1.25;;;;;;;;;;4917621;29;20604;-85
2021/08/18 09:40:47;;;;;;;1.50;1.40;;;;;;;;;;4918657;29;20277;-84
2021/08/18 09:43:17;;;;;;;1.20;1.20;;;;;;;;;;4918532;29;20198;-84
2021/08/18 09:45:45;;;;;;;1.27;1.25;;;;;;;;;;4918575;29;20290;-85
2021/08/18 09:48:16;;;;;;;1.83;1.45;;;;;;;;;;4918151;29;20210;-85
2021/08/18 09:50:52;;;;;;;1.55;1.45;;;;;;;;;;4917686;29;20198;-84
2021/08/18 09:53:24;;;;;;;1.17;1.15;;;;;;;;;;4918673;29;20560;-85
2021/08/18 09:56:02;;;;;;;1.40;1.30;;;;;;;;;;4918175;29;20709;-85
2021/08/18 09:58:33;;;;;;;5.07;1.70;;;;;;;;;;4917730;29;20226;-86
2021/08/18 10:01:02;;;;;;;1.77;1.50;;;;;;;;;;4917868;29;20561;-85
2021/08/18 10:03:31;;;;;;;1.13;1.13;;;;;;;;;;4918713;29;20198;-85
2021/08/18 10:06:00;;;;;;;1.30;1.20;;;;;;;;;;4919579;29;20241;-85
2021/08/18 10:08:27;;;;;;;1.50;1.35;;;;;;;;;;4917508;29;20193;-85
2021/08/18 10:11:04;;;;;;;1.45;1.35;;;;;;;;;;4917384;29;20532;-85
2021/08/18 10:13:32;;;;;;;1.50;1.40;;;;;;;;;;4917761;29;20564;-84
2021/08/18 10:16:00;;;;;;;1.50;1.40;;;;;;;;;;4917278;29;20234;-84
2021/08/18 10:18:36;;;;;;;2.08;1.92;;;;;;;;;;4917239;29;20187;-86
2021/08/18 10:21:13;;;;;;;2.42;1.60;;;;;;;;;;4917339;29;20190;-86
2021/08/18 10:23:43;;;;;;;1.70;1.60;;;;;;;;;;4917263;29;20201;-87
2021/08/18 10:26:52;;;;;;;1.58;1.48;;;;;;;;;;4917254;29;20597;-85
2021/08/18 10:29:37;;;;;;;1.60;1.50;;;;;;;;;;4917003;29;20206;-86
2021/08/18 10:32:12;;;;;;;1.42;1.33;;;;;;;;;;4917031;29;20206;-86
2021/08/18 10:34:47;;;;;;;1.00;1.00;;;;;;;;;;4917127;29;20230;-87
2021/08/18 10:37:23;;;;;;;1.85;1.75;;;;;;;;;;4916754;29;20776;-86
2021/08/18 10:39:53;;;;;;;1.33;1.23;;;;;;;;;;4916595;29;20213;-86
2021/08/18 10:42:40;;;;;;;1.85;1.75;;;;;;;;;;4916930;29;20754;-85
2021/08/18 10:45:39;;;;;;;1.10;1.10;;;;;;;;;;4914562;29;20285;-87
2021/08/18 10:48:08;;;;;;;0.80;0.80;;;;;;;;;;4916526;29;20627;-86
2021/08/18 10:50:45;;;;;;;1.73;1.63;;;;;;;;;;4916529;29;20246;-86
2021/08/18 10:53:33;;;;;;;1.08;1.08;;;;;;;;;;4916713;29;20186;-87
2021/08/18 10:56:01;;;;;;;0.90;0.90;;;;;;;;;;4916258;29;20653;-87
2021/08/18 10:58:32;;;;;;;2.28;1.50;;;;;;;;;;4916478;29;20191;-87
2021/08/18 11:00:59;;;;;;;1.05;1.05;;;;;;;;;;4916348;29;20223;-87
2021/08/18 11:03:31;;;;;;;1.73;1.40;;;;;;;;;;4916441;29;20197;-86
2021/08/18 11:05:59;;;;;;;1.75;1.65;;;;;;;;;;4917800;29;20310;-87
2021/08/18 11:08:28;;;;;;;1.60;1.50;;;;;;;;;;4916488;29;20194;-87
2021/08/18 11:11:16;;;;;;;2.25;2.00;;;;;;;;;;4917603;29;20187;-87
2021/08/18 11:13:52;;;;;;;1.00;1.00;;;;;;;;;;4920073;29;20195;-86
2021/08/18 11:16:23;;;;;;;1.40;1.30;;;;;;;;;;4920168;29;20276;-86
2021/08/18 11:18:54;;;;;;;1.00;1.00;;;;;;;;;;4919573;29;20206;-86
2021/08/18 11:21:27;;;;;;;1.40;1.30;;;;;;;;;;4919810;29;20198;-87
2021/08/18 11:24:03;;;;;;;1.70;1.60;;;;;;;;;;4920195;29;20206;-87
2021/08/18 11:26:34;;;;;;;0.90;0.90;;;;;;;;;;4920227;29;20194;-87
2021/08/18 11:29:07;;;;;;;1.60;1.50;;;;;;;;;;4919991;29;20218;-87
2021/08/18 11:31:38;;;;;;;1.17;1.08;;;;;;;;;;4920241;29;20201;-87
2021/08/18 11:34:22;;;;;;;1.60;1.50;;;;;;;;;;4914606;29;20206;-88
2021/08/18 11:37:05;;;;;;;1.08;1.08;;;;;;;;;;4913557;29;20248;-86
2021/08/18 11:39:37;;;;;;;1.23;1.13;;;;;;;;;;4919949;29;20222;-86
2021/08/18 11:42:16;;;;;;;1.50;1.40;;;;;;;;;;4919413;29;20634;-86
2021/08/18 11:44:46;;;;;;;2.15;1.95;;;;;;;;;;4919878;29;20230;-87
2021/08/18 11:47:19;;;;;;;1.80;1.70;;;;;;;;;;4918236;29;20207;-87
2021/08/18 11:49:49;;;;;;;2.10;1.90;;;;;;;;;;4901925;29;20635;-86
2021/08/18 11:52:19;;;;;;;1.80;1.70;;;;;;;;;;4900996;29;20199;-87
2021/08/18 11:55:02;;;;;;;1.50;1.40;;;;;;;;;;4914779;29;20218;-87
2021/08/18 11:57:36;;;;;;;1.20;1.20;;;;;;;;;;4919881;29;20289;-86
2021/08/18 12:00:11;;;;;;;1.38;1.10;;;;;;;;;;4918766;29;20375;-87
2021/08/18 12:02:50;;;;;;;1.00;1.00;;;;;;;;;;4919894;29;20245;-88
2021/08/18 12:05:21;;;;;;;1.40;1.30;;;;;;;;;;4920220;29;20232;-89
2021/08/18 12:07:50;;;;;;;1.65;1.55;;;;;;;;;;4918605;29;20206;-88
2021/08/18 12:10:23;;;;;;;1.40;1.30;;;;;;;;;;4918044;29;20213;-88
2021/08/18 12:13:04;;;;;;;1.70;1.60;;;;;;;;;;4920553;29;20289;-88
2021/08/18 12:15:41;;;;;;;1.20;1.10;;;;;;;;;;4921411;29;20776;-88
2021/08/18 12:18:30;;;;;;;1.33;1.23;;;;;;;;;;4919838;29;20798;-88
2021/08/18 12:21:18;;;;;;;1.58;1.48;;;;;;;;;;4919267;29;20231;-87
2021/08/18 12:23:48;;;;;;;1.60;1.50;;;;;;;;;;4918658;29;20210;-87
2021/08/18 12:26:27;;;;;;;2.00;1.88;;;;;;;;;;4918709;29;20218;-86
2021/08/18 12:28:56;;;;;;;1.38;1.27;;;;;;;;;;4919037;29;20193;-87
2021/08/18 12:32:01;;;;;;;1.50;1.40;;;;;;;;;;4919421;29;20207;-86
2021/08/18 12:34:47;;;;;;;1.27;1.20;;;;;;;;;;4918870;29;20709;-85
2021/08/18 12:37:20;;;;;;;2.05;1.13;;;;;;;;;;4918880;29;20661;-86
2021/08/18 12:40:00;;;;;;;1.40;1.30;;;;;;;;;;4918647;29;20702;-85
2021/08/18 12:42:30;;;;;;;1.67;1.58;;;;;;;;;;4918318;29;20657;-87
2021/08/18 12:45:10;;;;;;;1.20;1.20;;;;;;;;;;4918263;29;20587;-87
2021/08/18 12:47:42;;;;;;;1.45;1.35;;;;;;;;;;4918243;29;20642;-87
2021/08/18 12:50:13;;;;;;;1.73;1.63;;;;;;;;;;4918656;29;20201;-87
2021/08/18 12:52:40;;;;;;;1.73;1.63;;;;;;;;;;4918317;29;20194;-87
2021/08/18 12:55:12;;;;;;;1.13;1.13;;;;;;;;;;4918060;29;20222;-87
2021/08/18 12:57:42;;;;;;;1.33;1.23;;;;;;;;;;4918571;29;20281;-88
2021/08/18 13:00:11;;;;;;;1.27;1.25;;;;;;;;;;4918207;29;20546;-87
2021/08/18 13:02:40;;;;;;;1.65;1.55;;;;;;;;;;4918403;29;20195;-87
2021/08/18 13:05:10;;;;;;;1.35;1.25;;;;;;;;;;4918006;29;20233;-88
2021/08/18 13:07:39;;;;;;;1.05;1.05;;;;;;;;;;4918416;29;20183;-88
2021/08/18 13:10:09;;;;;;;1.25;1.25;;;;;;;;;;4918549;29;20729;-88
2021/08/18 13:12:37;;;;;;;1.15;1.15;;;;;;;;;;4917939;29;20189;-87
2021/08/18 13:15:08;;;;;;;1.42;1.33;;;;;;;;;;4917049;29;20215;-88
2021/08/18 13:17:39;;;;;;;1.25;1.20;;;;;;;;;;4917550;29;20636;-87
2021/08/18 13:20:08;;;;;;;1.70;1.60;;;;;;;;;;4917365;29;20561;-88
2021/08/18 13:22:35;;;;;;;1.65;1.55;;;;;;;;;;4917629;29;20189;-87
2021/08/18 13:25:03;;;;;;;1.98;1.88;;;;;;;;;;4917465;29;20230;-87
2021/08/18 13:27:31;;;;;;;2.25;1.80;;;;;;;;;;4917742;29;20183;-87
2021/08/18 13:30:00;;;;;;;1.60;1.50;;;;;;;;;;4918024;29;20669;-87
2021/08/18 13:32:27;;;;;;;1.70;1.60;;;;;;;;;;4917740;29;20638;-86
2021/08/18 13:34:56;;;;;;;3.20;2.08;;;;;;;;;;4916784;29;20226;-87
2021/08/18 13:37:29;;;;;;;1.80;1.70;;;;;;;;;;4917341;29;20246;-88
2021/08/18 13:39:57;;;;;;;2.17;1.98;;;;;;;;;;4917733;29;20195;-88
2021/08/18 13:42:25;;;;;;;2.05;1.95;;;;;;;;;;4917631;29;20219;-87
2021/08/18 13:45:00;;;;;;;2.15;2.05;;;;;;;;;;4916484;29;20241;-87
2021/08/18 13:47:28;;;;;;;1.67;1.58;;;;;;;;;;4917409;29;20205;-87
2021/08/18 13:49:58;;;;;;;1.98;1.80;;;;;;;;;;4917498;29;20190;-87
2021/08/18 13:52:27;;;;;;;1.70;1.60;;;;;;;;;;4917342;29;20197;-87
2021/08/18 13:54:55;;;;;;;1.83;1.73;;;;;;;;;;4917256;29;20219;-87
2021/08/18 13:57:23;;;;;;;2.20;2.08;;;;;;;;;;4917245;29;20179;-87
2021/08/18 13:59:53;;;;;;;1.80;1.70;;;;;;;;;;4917454;29;20631;-87
2021/08/18 14:02:22;;;;;;;1.85;1.75;;;;;;;;;;4917384;29;20210;-87
2021/08/18 14:04:50;;;;;;;1.90;1.80;;;;;;;;;;4917155;29;20237;-88
2021/08/18 14:07:21;;;;;;;2.25;2.10;;;;;;;;;;4917563;29;20194;-87
2021/08/18 14:09:56;;;;;;;2.83;2.63;;;;;;;;;;4917604;29;20582;-87
2021/08/18 14:12:25;;;;;;;2.00;1.90;;;;;;;;;;4917239;29;20194;-88
2021/08/18 14:14:54;;;;;;;2.20;2.10;;;;;;;;;;4916545;29;20226;-87
2021/08/18 14:17:23;;;;;;;1.88;1.77;;;;;;;;;;4917025;29;20206;-87
2021/08/18 14:19:51;;;;;;;1.88;1.77;;;;;;;;;;4917434;29;20615;-87
2021/08/18 14:22:21;;;;;;;2.17;2.08;;;;;;;;;;4916902;29;20206;-87
2021/08/18 14:24:49;;;;;;;1.65;1.55;;;;;;;;;;4917003;29;20223;-86
2021/08/18 14:27:17;;;;;;;2.00;1.90;;;;;;;;;;4916908;29;20197;-86
2021/08/18 14:29:45;;;;;;;1.90;1.80;;;;;;;;;;4917216;29;20242;-86
2021/08/18 14:32:13;;;;;;;1.48;1.38;;;;;;;;;;4917759;29;20564;-86
2021/08/18 14:34:41;;;;;;;1.38;1.35;;;;;;;;;;4916835;29;20230;-87
2021/08/18 14:37:10;;;;;;;1.80;1.70;;;;;;;;;;4916526;29;20233;-87
2021/08/18 14:39:40;;;;;;;1.30;1.30;;;;;;;;;;4916048;29;20206;-87
2021/08/18 14:42:10;;;;;;;1.80;1.70;;;;;;;;;;4916524;29;20233;-87
2021/08/18 14:44:38;;;;;;;1.50;1.40;;;;;;;;;;4916441;29;20226;-87
2021/08/18 14:47:06;;;;;;;1.80;1.70;;;;;;;;;;4916471;29;20568;-87
2021/08/18 14:49:34;;;;;;;1.60;1.50;;;;;;;;;;4916628;29;20800;-87
2021/08/18 14:52:03;;;;;;;2.47;1.98;;;;;;;;;;4916853;29;20186;-87
2021/08/18 14:54:31;;;;;;;1.70;1.60;;;;;;;;;;4916422;29;20218;-87
2021/08/18 14:57:00;;;;;;;2.00;1.90;;;;;;;;;;4916724;29;20201;-87
2021/08/18 14:59:30;;;;;;;2.00;1.90;;;;;;;;;;4916961;29;20186;-87
2021/08/18 15:01:58;;;;;;;1.63;1.52;;;;;;;;;;4916981;29;20206;-87